createdAt,value
2022-09-26T00:04:32.554Z,97522.50
2022-09-26T00:09:35.088Z,97519.31
2022-09-26T00:14:38.586Z,97513.28
2022-09-26T00:19:40.454Z,97511.47
2022-09-26T00:24:42.311Z,97520.09
2022-09-26T00:29:44.347Z,97512.47
2022-09-26T00:34:46.246Z,97504.47
2022-09-26T00:39:48.041Z,97504.06
2022-09-26T00:44:54.898Z,97501.28
2022-09-26T00:50:05.118Z,97497.88
2022-09-26T00:55:11.899Z,97496.06
2022-09-26T01:00:15.798Z,97491.63
2022-09-26T01:05:22.253Z,97487.22
2022-09-26T01:10:24.671Z,97490.22
2022-09-26T01:15:26.480Z,97485.19
2022-09-26T01:20:39.081Z,97475.97
2022-09-26T01:26:17.676Z,97478.00
2022-09-26T01:31:42.065Z,97479.59
2022-09-26T01:37:14.549Z,97475.78
2022-09-26T01:42:37.728Z,97452.72
2022-09-26T01:48:02.485Z,97469.97
2022-09-26T01:53:27.701Z,97467.19
2022-09-26T01:58:51.542Z,97469.59
2022-09-26T02:03:59.011Z,97460.97
2022-09-26T02:09:14.272Z,97467.59
2022-09-26T02:14:28.970Z,97460.59
2022-09-26T02:20:06.754Z,97453.97
2022-09-26T02:25:09.588Z,97450.59
2022-09-26T02:30:13.824Z,97448.41
2022-09-26T02:35:35.105Z,97437.38
2022-09-26T02:40:53.316Z,97440.38
2022-09-26T02:46:15.621Z,97439.59
2022-09-26T02:51:44.655Z,97436.59
2022-09-26T02:57:22.559Z,97439.63
2022-09-26T03:03:03.988Z,97441.22
2022-09-26T03:08:12.579Z,97440.63
2022-09-26T03:13:17.096Z,97428.81
2022-09-26T03:18:30.095Z,97435.03
2022-09-26T03:23:32.382Z,97428.41
2022-09-26T03:28:39.376Z,97423.78
2022-09-26T03:33:41.271Z,97426.41
2022-09-26T03:38:44.271Z,97418.78
2022-09-26T03:44:09.016Z,97434.63
2022-09-26T03:49:29.524Z,97433.22
2022-09-26T03:54:31.427Z,97431.81
2022-09-26T03:59:33.553Z,97435.44
2022-09-26T04:04:35.937Z,97432.22
2022-09-26T04:09:37.904Z,97431.63
2022-09-26T04:14:40.397Z,97425.81
2022-09-26T04:19:42.401Z,97420.59
2022-09-26T04:25:12.156Z,97417.19
2022-09-26T04:31:20.931Z,97413.38
2022-09-26T04:36:28.529Z,97412.38
2022-09-26T04:41:31.587Z,97412.38
2022-09-26T04:46:35.665Z,97418.19
2022-09-26T04:51:37.585Z,97412.78
2022-09-26T04:56:39.826Z,97409.97
2022-09-26T05:01:43.726Z,97411.59
2022-09-26T05:06:57.982Z,97406.38
2022-09-26T05:12:04.398Z,97406.38
2022-09-26T05:17:10.272Z,97397.94
2022-09-26T05:22:13.013Z,97405.78
2022-09-26T05:27:15.325Z,97391.13
2022-09-26T05:32:20.846Z,97388.53
2022-09-26T05:37:32.882Z,97389.13
2022-09-26T05:42:35.587Z,97396.94
2022-09-26T05:47:39.530Z,97395.16
2022-09-26T05:52:41.727Z,97391.13
2022-09-26T05:57:53.103Z,97399.34
2022-09-26T06:02:58.593Z,97418.81
2022-09-26T06:08:12.587Z,97418.81
2022-09-26T06:13:21.792Z,97419.59
2022-09-26T06:18:28.022Z,97413.19
2022-09-26T06:23:31.928Z,97411.97
2022-09-26T06:28:39.216Z,97406.78
2022-09-26T06:33:42.338Z,97401.56
2022-09-26T06:39:01.873Z,97391.13
2022-09-26T06:51:02.218Z,97387.13
2022-09-26T06:56:06.179Z,97384.94
2022-09-26T07:01:08.592Z,97389.13
2022-09-26T07:06:31.347Z,97380.50
2022-09-26T07:11:56.267Z,97379.31
2022-09-26T07:16:55.917Z,97380.72
2022-09-26T07:22:09.953Z,97380.31
2022-09-26T07:27:27.133Z,97372.09
2022-09-26T07:32:31.496Z,97375.88
2022-09-26T07:37:51.962Z,97373.25
2022-09-26T07:43:18.589Z,97359.00
2022-09-26T07:48:40.078Z,97361.81
2022-09-26T07:54:00.685Z,97368.41
2022-09-26T07:59:12.710Z,97355.16
2022-09-26T08:04:43.492Z,97353.38
2022-09-26T08:09:45.626Z,97349.91
2022-09-26T08:15:26.104Z,97349.06
2022-09-26T08:20:38.364Z,97357.06
2022-09-26T08:25:41.313Z,97353.56
2022-09-26T08:31:08.538Z,97347.94
2022-09-26T08:36:13.946Z,97346.31
2022-09-26T08:42:11.887Z,97350.66
2022-09-26T08:47:52.137Z,97347.00
2022-09-26T08:53:16.149Z,97346.31
2022-09-26T08:58:44.820Z,97348.47
2022-09-26T09:04:13.463Z,97342.25
2022-09-26T09:09:17.174Z,97348.75
2022-09-26T09:15:24.185Z,97342.16
2022-09-26T09:20:57.503Z,97336.66
2022-09-26T09:32:01.943Z,97329.75
2022-09-26T09:37:53.985Z,97323.63
2022-09-26T09:43:46.002Z,97316.78
2022-09-26T09:48:48.381Z,97314.31
2022-09-26T09:53:50.367Z,97315.06
2022-09-26T09:59:03.769Z,97310.84
2022-09-26T10:04:41.683Z,97310.56
2022-09-26T10:09:44.241Z,97305.06
2022-09-26T10:15:09.438Z,97297.13
2022-09-26T10:20:40.130Z,97288.84
2022-09-26T10:25:47.683Z,97280.78
2022-09-26T10:30:50.787Z,97276.72
2022-09-26T10:36:04.982Z,97278.38
2022-09-26T10:41:23.149Z,97273.50
2022-09-26T10:46:26.211Z,97279.09
2022-09-26T10:52:31.890Z,97273.34
2022-09-26T10:57:41.023Z,97267.66
2022-09-26T11:02:47.218Z,97256.41
2022-09-26T11:07:52.458Z,97250.94
2022-09-26T11:13:24.086Z,97247.41
2022-09-26T11:18:42.644Z,97247.13
2022-09-26T11:24:03.663Z,97235.28
2022-09-26T11:29:06.105Z,97236.78
2022-09-26T11:34:22.270Z,97227.66
2022-09-26T11:39:50.565Z,97231.81
2022-09-26T11:45:31.020Z,97211.75
2022-09-26T11:51:23.413Z,97224.66
2022-09-26T11:56:47.393Z,97214.19
2022-09-26T12:02:04.334Z,97211.16
2022-09-26T12:07:25.368Z,97193.56
2022-09-26T12:12:42.963Z,97182.97
2022-09-26T12:17:47.945Z,97178.66
2022-09-26T12:22:49.899Z,97178.44
2022-09-26T12:28:16.901Z,97164.38
2022-09-26T12:33:52.737Z,97160.25
2022-09-26T12:39:31.560Z,97154.56
2022-09-26T12:45:26.726Z,97148.06
2022-09-26T12:50:42.863Z,97148.38
2022-09-26T12:56:15.562Z,97139.84
2022-09-26T13:01:37.572Z,97138.13
2022-09-26T13:07:17.248Z,97132.31
2022-09-26T13:12:30.542Z,97126.06
2022-09-26T13:17:46.300Z,97119.13
2022-09-26T13:22:48.226Z,97108.09
2022-09-26T13:28:05.403Z,97106.25
2022-09-26T13:33:18.599Z,97105.91
2022-09-26T13:38:42.808Z,97104.56
2022-09-26T13:43:56.666Z,97096.47
2022-09-26T13:49:26.564Z,97091.56
2022-09-26T13:54:44.341Z,97077.22
2022-09-26T13:59:51.784Z,97066.06
2022-09-26T14:05:02.831Z,97061.97
2022-09-26T14:10:17.992Z,97052.88
2022-09-26T14:15:27.164Z,97052.63
2022-09-26T14:20:34.336Z,97043.75
2022-09-26T14:25:44.967Z,97040.69
2022-09-26T14:31:25.105Z,97043.75
2022-09-26T14:36:33.493Z,97042.41
2022-09-26T14:41:36.654Z,97030.56
2022-09-26T14:46:41.545Z,97029.19
2022-09-26T14:51:58.969Z,97029.19
2022-09-26T14:57:08.207Z,97020.19
2022-09-26T15:02:16.034Z,97023.84
2022-09-26T15:07:22.506Z,97016.78
2022-09-26T15:12:41.507Z,97013.38
2022-09-26T15:17:50.606Z,97010.19
2022-09-26T15:22:58.568Z,96996.88
2022-09-26T15:28:01.909Z,96990.03
2022-09-26T15:33:05.745Z,96995.50
2022-09-26T15:38:12.940Z,96982.06
2022-09-26T15:43:22.406Z,96984.13
2022-09-26T15:48:28.550Z,96978.66
2022-09-26T15:53:47.228Z,96966.94
2022-09-26T15:58:55.792Z,96965.00
2022-09-26T16:04:02.477Z,96965.03
2022-09-26T16:09:16.317Z,96966.06
2022-09-26T16:14:26.918Z,96960.84
2022-09-26T16:19:32.714Z,96960.38
2022-09-26T16:24:34.862Z,96955.72
2022-09-26T16:29:36.903Z,96958.44
2022-09-26T16:34:39.194Z,96957.53
2022-09-26T16:39:42.355Z,96950.03
2022-09-26T16:44:54.457Z,96950.13
2022-09-26T16:51:01.570Z,96956.47
2022-09-26T16:56:06.497Z,96956.81
2022-09-26T17:01:55.590Z,96954.28
2022-09-26T17:07:07.543Z,96954.38
2022-09-26T17:12:21.602Z,96954.25
2022-09-26T17:17:27.665Z,96954.13
2022-09-26T17:22:29.633Z,96952.41
2022-09-26T17:27:34.398Z,96947.06
2022-09-26T17:32:38.264Z,96943.28
2022-09-26T17:37:41.167Z,96946.56
2022-09-26T17:42:42.972Z,96946.66
2022-09-26T17:47:44.937Z,96947.09
2022-09-26T17:52:47.498Z,96944.13
2022-09-26T17:57:49.358Z,96941.63
2022-09-26T18:03:00.510Z,96939.44
2022-09-26T18:08:22.557Z,96929.88
2022-09-26T18:13:28.008Z,96932.13
2022-09-26T18:18:32.383Z,96935.41
2022-09-26T18:24:02.404Z,96920.19
2022-09-26T18:29:08.208Z,96924.25
2022-09-26T18:34:16.450Z,96909.81
2022-09-26T18:50:58.783Z,96907.13
2022-09-26T18:56:19.167Z,96903.56
2022-09-26T19:01:38.408Z,96893.59
2022-09-26T19:06:42.987Z,96898.22
2022-09-26T19:11:45.377Z,96890.63
2022-09-26T19:16:49.485Z,96884.81
2022-09-26T19:22:00.143Z,96877.00
2022-09-26T19:27:25.204Z,96884.25
2022-09-26T19:32:35.386Z,96875.63
2022-09-26T19:37:37.236Z,96879.47
2022-09-26T19:42:39.339Z,96870.03
2022-09-26T19:47:47.686Z,96867.66
2022-09-26T19:52:52.054Z,96857.22
2022-09-26T19:57:56.597Z,96856.41
2022-09-26T20:02:58.775Z,96846.19
2022-09-26T20:08:01.067Z,96841.19
2022-09-26T20:13:02.913Z,96838.22
2022-09-26T20:29:28.903Z,96822.09
2022-09-26T20:34:30.709Z,96819.69
2022-09-26T20:39:32.632Z,96820.94
2022-09-26T20:44:36.549Z,96817.97
2022-09-26T20:49:46.166Z,96812.38
2022-09-26T20:54:48.603Z,96815.66
2022-09-26T20:59:51.654Z,96811.09
2022-09-26T21:04:54.528Z,96802.25
2022-09-26T21:09:59.533Z,96797.25
2022-09-26T21:15:03.348Z,96785.59
2022-09-26T21:20:05.595Z,96784.16
2022-09-26T21:25:29.091Z,96778.06
2022-09-26T21:30:31.064Z,96777.63
2022-09-26T21:35:32.964Z,96770.38
2022-09-26T21:40:47.079Z,96759.94
2022-09-26T21:45:49.077Z,96760.28
2022-09-26T21:50:58.196Z,96756.44
2022-09-26T21:56:07.749Z,96748.19
2022-09-26T22:01:09.862Z,96742.53
2022-09-26T22:06:11.902Z,96728.47
2022-09-26T22:11:14.386Z,96726.44
2022-09-26T22:16:16.698Z,96719.41
2022-09-26T22:21:19.222Z,96704.78
2022-09-26T22:26:21.347Z,96690.72
2022-09-26T22:31:23.394Z,96683.13
2022-09-26T22:36:26.526Z,96679.72
2022-09-26T22:41:28.574Z,96665.06
2022-09-26T22:46:33.830Z,96666.66
2022-09-26T22:51:35.923Z,96655.66
2022-09-26T22:56:38.549Z,96644.44
2022-09-26T23:01:40.512Z,96633.78
2022-09-26T23:06:42.527Z,96620.75
2022-09-26T23:11:44.404Z,96611.09
2022-09-26T23:16:46.248Z,96600.66
2022-09-26T23:21:48.161Z,96588.66
2022-09-26T23:26:50.424Z,96574.59
2022-09-26T23:32:16.413Z,96571.97
2022-09-26T23:37:18.262Z,96571.97
2022-09-26T23:42:20.535Z,96573.56
2022-09-26T23:47:22.345Z,96574.13
2022-09-26T23:52:24.203Z,96564.72
2022-09-26T23:57:26.121Z,96556.34
